Nashville, Tennessee
Traffic Map
Current Weather Conditions
Nashville, Tennessee
Clear
Clear
42°
Feels Like: 42°
Wind Chill: 42° Ceiling: Unl
Heat Index: 42° Visibility: 10mi
Dew Point: 25° Wind: 0mph
Humidity: 51% Direction: ° ()
Pressure: 30.17in Gusts: 0mph
Raw Report DataKBNA 110553Z 00000KT 10SM CLR 06/M04 A3017 RMK AO2 SLP219 T00561039 10067 20033 400941061 58000
Traffic Incident Summary
Active as of:
Severity:
Category:
InformationThere was an issue retrieving the traffic information for this location. Please try a different location or try again shortly.
Advertisements